Ashburn Park, Illinois
Current Conditions -  °F | °C
As of 7:53 PM on Wednesday 26 Nov 2014 (Local Time) from KMDW Reporting Station
Light Snow Light Snow  
Wind Chill: 27°   Ceiling: 2600
Heat Index: 32°   Visibility: 9mi
Dew Point: 22°   Wind: 5mph
Humidity: 66%   Direction: 30°NNE
Pressure: 30.14"   Gusts: NA
Location:  41.7473°N, 87.7132°W
Report Text: KMDW 270153Z 03004KT 9SM -SN OVC026 00/M06 A3014 RMK AO2 SNB48 SLP221 P0000 T00001056
Loading
Personal Weather Stations






























Interactive Weather Map New forecast layout! Learn more

10-Day Weather Forecast

Advertisements
Track Severe Weather on mobile